sensor_id;sensor_type;location;lat;lon;timestamp;P1;durP1;ratioP1;P2;durP2;ratioP2
4766;SDS011;2397;53.576;9.746;2023-07-22T00:01:27;7.90;;;7.10;;
4766;SDS011;2397;53.576;9.746;2023-07-22T00:03:55;21.80;;;8.70;;
4766;SDS011;2397;53.576;9.746;2023-07-22T00:06:21;10.27;;;8.47;;
4766;SDS011;2397;53.576;9.746;2023-07-22T00:08:49;14.53;;;7.97;;
4766;SDS011;2397;53.576;9.746;2023-07-22T00:11:16;9.40;;;7.57;;
4766;SDS011;2397;53.576;9.746;2023-07-22T00:13:42;9.60;;;7.20;;
4766;SDS011;2397;53.576;9.746;2023-07-22T00:16:10;10.03;;;7.53;;
4766;SDS011;2397;53.576;9.746;2023-07-22T00:18:37;10.27;;;7.80;;
4766;SDS011;2397;53.576;9.746;2023-07-22T00:21:03;12.63;;;8.63;;
4766;SDS011;2397;53.576;9.746;2023-07-22T00:23:30;10.77;;;8.70;;
4766;SDS011;2397;53.576;9.746;2023-07-22T00:25:56;9.37;;;7.60;;
4766;SDS011;2397;53.576;9.746;2023-07-22T00:28:23;11.43;;;8.70;;
4766;SDS011;2397;53.576;9.746;2023-07-22T00:30:49;8.97;;;7.70;;
4766;SDS011;2397;53.576;9.746;2023-07-22T00:33:16;12.20;;;8.13;;
4766;SDS011;2397;53.576;9.746;2023-07-22T00:35:46;10.90;;;8.90;;
4766;SDS011;2397;53.576;9.746;2023-07-22T00:38:15;12.10;;;8.50;;
4766;SDS011;2397;53.576;9.746;2023-07-22T00:40:42;9.33;;;7.67;;
4766;SDS011;2397;53.576;9.746;2023-07-22T00:43:10;10.30;;;8.70;;
4766;SDS011;2397;53.576;9.746;2023-07-22T00:45:37;12.37;;;9.13;;
4766;SDS011;2397;53.576;9.746;2023-07-22T00:48:03;12.17;;;8.20;;
4766;SDS011;2397;53.576;9.746;2023-07-22T00:50:32;16.50;;;8.37;;
4766;SDS011;2397;53.576;9.746;2023-07-22T00:52:59;9.83;;;8.17;;
4766;SDS011;2397;53.576;9.746;2023-07-22T00:55:25;12.90;;;8.20;;
4766;SDS011;2397;53.576;9.746;2023-07-22T00:57:54;13.70;;;7.90;;
4766;SDS011;2397;53.576;9.746;2023-07-22T01:00:21;9.80;;;8.80;;
4766;SDS011;2397;53.576;9.746;2023-07-22T01:02:47;10.90;;;8.70;;
4766;SDS011;2397;53.576;9.746;2023-07-22T01:05:15;12.47;;;9.30;;
4766;SDS011;2397;53.576;9.746;2023-07-22T01:07:43;12.40;;;8.80;;
4766;SDS011;2397;53.576;9.746;2023-07-22T01:10:10;10.30;;;8.30;;
4766;SDS011;2397;53.576;9.746;2023-07-22T01:12:37;10.83;;;8.83;;
4766;SDS011;2397;53.576;9.746;2023-07-22T01:15:04;15.10;;;9.43;;
4766;SDS011;2397;53.576;9.746;2023-07-22T01:17:35;12.83;;;8.30;;
4766;SDS011;2397;53.576;9.746;2023-07-22T01:20:03;9.27;;;7.50;;
4766;SDS011;2397;53.576;9.746;2023-07-22T01:22:31;9.97;;;8.13;;
4766;SDS011;2397;53.576;9.746;2023-07-22T01:24:59;11.63;;;9.00;;
4766;SDS011;2397;53.576;9.746;2023-07-22T01:27:26;13.43;;;8.60;;
4766;SDS011;2397;53.576;9.746;2023-07-22T01:29:53;13.67;;;8.70;;
4766;SDS011;2397;53.576;9.746;2023-07-22T01:32:20;9.97;;;8.17;;
4766;SDS011;2397;53.576;9.746;2023-07-22T01:34:46;13.10;;;8.83;;
4766;SDS011;2397;53.576;9.746;2023-07-22T01:37:13;14.20;;;8.40;;
4766;SDS011;2397;53.576;9.746;2023-07-22T01:39:40;18.30;;;8.10;;
4766;SDS011;2397;53.576;9.746;2023-07-22T01:42:06;13.70;;;8.50;;
4766;SDS011;2397;53.576;9.746;2023-07-22T01:44:33;10.03;;;7.93;;
4766;SDS011;2397;53.576;9.746;2023-07-22T01:47:03;10.90;;;7.63;;
4766;SDS011;2397;53.576;9.746;2023-07-22T01:49:30;8.90;;;7.80;;
4766;SDS011;2397;53.576;9.746;2023-07-22T01:51:56;10.37;;;7.60;;
4766;SDS011;2397;53.576;9.746;2023-07-22T01:54:23;11.60;;;7.07;;
4766;SDS011;2397;53.576;9.746;2023-07-22T01:56:49;12.73;;;6.90;;
4766;SDS011;2397;53.576;9.746;2023-07-22T01:59:16;19.83;;;9.23;;
4766;SDS011;2397;53.576;9.746;2023-07-22T02:01:43;8.77;;;5.83;;
4766;SDS011;2397;53.576;9.746;2023-07-22T02:04:10;10.40;;;7.67;;
4766;SDS011;2397;53.576;9.746;2023-07-22T02:06:37;16.83;;;7.33;;
4766;SDS011;2397;53.576;9.746;2023-07-22T02:09:04;14.10;;;8.50;;
4766;SDS011;2397;53.576;9.746;2023-07-22T02:11:35;9.43;;;7.23;;
4766;SDS011;2397;53.576;9.746;2023-07-22T02:14:02;13.80;;;7.17;;
4766;SDS011;2397;53.576;9.746;2023-07-22T02:16:36;12.30;;;7.27;;
4766;SDS011;2397;53.576;9.746;2023-07-22T02:19:03;8.67;;;7.27;;
4766;SDS011;2397;53.576;9.746;2023-07-22T02:21:39;15.50;;;7.83;;
4766;SDS011;2397;53.576;9.746;2023-07-22T02:24:05;10.43;;;7.27;;
4766;SDS011;2397;53.576;9.746;2023-07-22T02:26:32;13.30;;;7.80;;
4766;SDS011;2397;53.576;9.746;2023-07-22T02:28:58;12.77;;;8.60;;
4766;SDS011;2397;53.576;9.746;2023-07-22T02:31:25;11.73;;;7.70;;
4766;SDS011;2397;53.576;9.746;2023-07-22T02:33:52;15.60;;;8.53;;
4766;SDS011;2397;53.576;9.746;2023-07-22T02:36:18;10.10;;;7.40;;
4766;SDS011;2397;53.576;9.746;2023-07-22T02:38:45;10.73;;;7.53;;
4766;SDS011;2397;53.576;9.746;2023-07-22T02:41:12;12.33;;;8.30;;
4766;SDS011;2397;53.576;9.746;2023-07-22T02:43:38;18.13;;;9.53;;
4766;SDS011;2397;53.576;9.746;2023-07-22T02:46:06;16.80;;;9.10;;
4766;SDS011;2397;53.576;9.746;2023-07-22T02:48:35;14.50;;;9.07;;
4766;SDS011;2397;53.576;9.746;2023-07-22T02:51:05;9.93;;;7.80;;
4766;SDS011;2397;53.576;9.746;2023-07-22T02:53:33;15.67;;;8.50;;
4766;SDS011;2397;53.576;9.746;2023-07-22T02:56:00;13.50;;;8.37;;
4766;SDS011;2397;53.576;9.746;2023-07-22T02:58:27;10.73;;;7.67;;
4766;SDS011;2397;53.576;9.746;2023-07-22T03:00:53;14.10;;;8.37;;
4766;SDS011;2397;53.576;9.746;2023-07-22T03:03:20;13.03;;;8.97;;
4766;SDS011;2397;53.576;9.746;2023-07-22T03:05:47;13.73;;;7.40;;
4766;SDS011;2397;53.576;9.746;2023-07-22T03:08:14;10.30;;;7.70;;
4766;SDS011;2397;53.576;9.746;2023-07-22T03:10:41;10.67;;;7.40;;
4766;SDS011;2397;53.576;9.746;2023-07-22T03:13:07;10.10;;;7.17;;
4766;SDS011;2397;53.576;9.746;2023-07-22T03:15:34;10.10;;;7.57;;
4766;SDS011;2397;53.576;9.746;2023-07-22T03:18:00;13.60;;;8.70;;
4766;SDS011;2397;53.576;9.746;2023-07-22T03:20:27;11.70;;;6.93;;
4766;SDS011;2397;53.576;9.746;2023-07-22T03:22:53;15.83;;;7.17;;
4766;SDS011;2397;53.576;9.746;2023-07-22T03:25:21;10.80;;;8.80;;
4766;SDS011;2397;53.576;9.746;2023-07-22T03:27:47;14.97;;;8.00;;
4766;SDS011;2397;53.576;9.746;2023-07-22T03:30:14;14.80;;;8.07;;
4766;SDS011;2397;53.576;9.746;2023-07-22T03:32:43;15.13;;;8.30;;
4766;SDS011;2397;53.576;9.746;2023-07-22T03:35:12;14.23;;;7.03;;
4766;SDS011;2397;53.576;9.746;2023-07-22T03:37:39;11.60;;;7.60;;
4766;SDS011;2397;53.576;9.746;2023-07-22T03:40:07;14.07;;;7.00;;
4766;SDS011;2397;53.576;9.746;2023-07-22T03:42:38;11.70;;;6.47;;
4766;SDS011;2397;53.576;9.746;2023-07-22T03:45:05;11.90;;;7.47;;
4766;SDS011;2397;53.576;9.746;2023-07-22T03:47:33;12.07;;;7.47;;
4766;SDS011;2397;53.576;9.746;2023-07-22T03:49:59;12.87;;;7.60;;
4766;SDS011;2397;53.576;9.746;2023-07-22T03:52:26;11.07;;;7.60;;
4766;SDS011;2397;53.576;9.746;2023-07-22T03:54:52;12.57;;;7.23;;
4766;SDS011;2397;53.576;9.746;2023-07-22T03:57:19;8.53;;;6.60;;
4766;SDS011;2397;53.576;9.746;2023-07-22T03:59:45;13.57;;;7.40;;
4766;SDS011;2397;53.576;9.746;2023-07-22T04:02:12;10.40;;;7.20;;
4766;SDS011;2397;53.576;9.746;2023-07-22T04:04:39;10.00;;;7.23;;
4766;SDS011;2397;53.576;9.746;2023-07-22T04:07:05;13.13;;;7.30;;
4766;SDS011;2397;53.576;9.746;2023-07-22T04:09:34;12.13;;;7.47;;
4766;SDS011;2397;53.576;9.746;2023-07-22T04:12:02;12.30;;;7.10;;
4766;SDS011;2397;53.576;9.746;2023-07-22T04:14:28;16.07;;;7.90;;
4766;SDS011;2397;53.576;9.746;2023-07-22T04:16:58;10.23;;;7.27;;
4766;SDS011;2397;53.576;9.746;2023-07-22T04:19:25;10.93;;;7.47;;
4766;SDS011;2397;53.576;9.746;2023-07-22T04:21:52;8.70;;;7.13;;
4766;SDS011;2397;53.576;9.746;2023-07-22T04:24:19;15.63;;;7.90;;
4766;SDS011;2397;53.576;9.746;2023-07-22T04:26:46;12.00;;;7.03;;
4766;SDS011;2397;53.576;9.746;2023-07-22T04:29:12;10.63;;;7.43;;
4766;SDS011;2397;53.576;9.746;2023-07-22T04:31:39;12.90;;;6.67;;
4766;SDS011;2397;53.576;9.746;2023-07-22T04:34:06;13.70;;;6.57;;
4766;SDS011;2397;53.576;9.746;2023-07-22T04:36:33;9.70;;;6.57;;
4766;SDS011;2397;53.576;9.746;2023-07-22T04:39:00;12.60;;;6.93;;
4766;SDS011;2397;53.576;9.746;2023-07-22T04:41:26;16.13;;;8.30;;
4766;SDS011;2397;53.576;9.746;2023-07-22T04:43:53;14.30;;;7.30;;
4766;SDS011;2397;53.576;9.746;2023-07-22T04:46:19;11.00;;;7.10;;
4766;SDS011;2397;53.576;9.746;2023-07-22T04:48:47;9.40;;;6.00;;
4766;SDS011;2397;53.576;9.746;2023-07-22T04:51:13;11.17;;;7.13;;
4766;SDS011;2397;53.576;9.746;2023-07-22T04:53:40;11.93;;;7.07;;
4766;SDS011;2397;53.576;9.746;2023-07-22T04:56:06;13.33;;;6.40;;
4766;SDS011;2397;53.576;9.746;2023-07-22T04:58:33;8.00;;;6.20;;
4766;SDS011;2397;53.576;9.746;2023-07-22T05:00:59;10.00;;;6.30;;
4766;SDS011;2397;53.576;9.746;2023-07-22T05:03:26;8.97;;;6.67;;
4766;SDS011;2397;53.576;9.746;2023-07-22T05:05:53;12.77;;;7.40;;
4766;SDS011;2397;53.576;9.746;2023-07-22T05:08:19;12.07;;;6.07;;
4766;SDS011;2397;53.576;9.746;2023-07-22T05:10:46;9.67;;;6.37;;
4766;SDS011;2397;53.576;9.746;2023-07-22T05:13:13;10.90;;;6.67;;
4766;SDS011;2397;53.576;9.746;2023-07-22T05:15:39;10.67;;;6.57;;
4766;SDS011;2397;53.576;9.746;2023-07-22T05:18:06;12.20;;;6.43;;
4766;SDS011;2397;53.576;9.746;2023-07-22T05:20:33;12.40;;;6.50;;
4766;SDS011;2397;53.576;9.746;2023-07-22T05:22:59;10.27;;;6.53;;
4766;SDS011;2397;53.576;9.746;2023-07-22T05:25:26;11.30;;;6.90;;
4766;SDS011;2397;53.576;9.746;2023-07-22T05:27:52;10.37;;;6.30;;
4766;SDS011;2397;53.576;9.746;2023-07-22T05:30:19;16.10;;;7.50;;
4766;SDS011;2397;53.576;9.746;2023-07-22T05:33:00;14.63;;;9.33;;
4766;SDS011;2397;53.576;9.746;2023-07-22T05:35:27;13.40;;;11.93;;
4766;SDS011;2397;53.576;9.746;2023-07-22T05:37:53;11.57;;;8.60;;
4766;SDS011;2397;53.576;9.746;2023-07-22T05:40:20;13.20;;;8.13;;
4766;SDS011;2397;53.576;9.746;2023-07-22T05:42:46;10.03;;;7.50;;
4766;SDS011;2397;53.576;9.746;2023-07-22T05:45:13;7.20;;;6.47;;
4766;SDS011;2397;53.576;9.746;2023-07-22T05:47:41;8.50;;;5.57;;
4766;SDS011;2397;53.576;9.746;2023-07-22T05:50:08;6.60;;;5.63;;
4766;SDS011;2397;53.576;9.746;2023-07-22T05:52:35;11.90;;;5.93;;
4766;SDS011;2397;53.576;9.746;2023-07-22T05:55:01;11.67;;;6.87;;
4766;SDS011;2397;53.576;9.746;2023-07-22T05:57:28;7.37;;;5.50;;
4766;SDS011;2397;53.576;9.746;2023-07-22T05:59:57;10.00;;;4.90;;
4766;SDS011;2397;53.576;9.746;2023-07-22T06:02:37;11.03;;;5.83;;
4766;SDS011;2397;53.576;9.746;2023-07-22T06:05:04;9.17;;;6.10;;
4766;SDS011;2397;53.576;9.746;2023-07-22T06:07:31;8.83;;;5.30;;
4766;SDS011;2397;53.576;9.746;2023-07-22T06:09:57;11.30;;;5.37;;
4766;SDS011;2397;53.576;9.746;2023-07-22T06:12:24;8.03;;;4.63;;
4766;SDS011;2397;53.576;9.746;2023-07-22T06:14:52;10.10;;;5.80;;
4766;SDS011;2397;53.576;9.746;2023-07-22T06:17:18;8.60;;;5.37;;
4766;SDS011;2397;53.576;9.746;2023-07-22T06:19:46;8.07;;;5.20;;
4766;SDS011;2397;53.576;9.746;2023-07-22T06:22:13;8.00;;;5.27;;
4766;SDS011;2397;53.576;9.746;2023-07-22T06:24:40;11.30;;;5.70;;
4766;SDS011;2397;53.576;9.746;2023-07-22T06:27:06;6.53;;;4.90;;
4766;SDS011;2397;53.576;9.746;2023-07-22T06:29:33;9.10;;;5.10;;
4766;SDS011;2397;53.576;9.746;2023-07-22T06:31:59;6.77;;;4.53;;
4766;SDS011;2397;53.576;9.746;2023-07-22T06:34:26;6.30;;;4.20;;
4766;SDS011;2397;53.576;9.746;2023-07-22T06:36:52;7.20;;;4.93;;
4766;SDS011;2397;53.576;9.746;2023-07-22T06:39:19;9.73;;;5.20;;
4766;SDS011;2397;53.576;9.746;2023-07-22T06:41:45;11.27;;;4.60;;
4766;SDS011;2397;53.576;9.746;2023-07-22T06:44:12;9.03;;;5.37;;
4766;SDS011;2397;53.576;9.746;2023-07-22T06:46:38;6.10;;;4.40;;
4766;SDS011;2397;53.576;9.746;2023-07-22T06:49:05;6.17;;;3.80;;
4766;SDS011;2397;53.576;9.746;2023-07-22T06:51:31;9.37;;;4.20;;
4766;SDS011;2397;53.576;9.746;2023-07-22T06:53:58;8.77;;;4.07;;
4766;SDS011;2397;53.576;9.746;2023-07-22T06:56:24;3.60;;;3.20;;
4766;SDS011;2397;53.576;9.746;2023-07-22T06:58:52;4.30;;;3.30;;
4766;SDS011;2397;53.576;9.746;2023-07-22T07:01:19;5.07;;;3.30;;
4766;SDS011;2397;53.576;9.746;2023-07-22T07:03:46;5.40;;;3.23;;
4766;SDS011;2397;53.576;9.746;2023-07-22T07:06:12;5.13;;;3.60;;
4766;SDS011;2397;53.576;9.746;2023-07-22T07:08:39;4.53;;;3.33;;
4766;SDS011;2397;53.576;9.746;2023-07-22T07:11:06;5.23;;;3.50;;
4766;SDS011;2397;53.576;9.746;2023-07-22T07:13:33;4.17;;;3.30;;
4766;SDS011;2397;53.576;9.746;2023-07-22T07:16:19;4.17;;;3.33;;
4766;SDS011;2397;53.576;9.746;2023-07-22T07:18:49;4.73;;;3.10;;
4766;SDS011;2397;53.576;9.746;2023-07-22T07:21:17;6.00;;;3.17;;
4766;SDS011;2397;53.576;9.746;2023-07-22T07:23:44;5.13;;;3.20;;
4766;SDS011;2397;53.576;9.746;2023-07-22T07:26:11;4.47;;;3.23;;
4766;SDS011;2397;53.576;9.746;2023-07-22T07:28:38;5.50;;;2.20;;
4766;SDS011;2397;53.576;9.746;2023-07-22T07:31:04;4.90;;;2.37;;
4766;SDS011;2397;53.576;9.746;2023-07-22T07:33:32;2.33;;;2.13;;
4766;SDS011;2397;53.576;9.746;2023-07-22T07:35:59;4.30;;;2.50;;
4766;SDS011;2397;53.576;9.746;2023-07-22T07:38:26;5.33;;;2.67;;
4766;SDS011;2397;53.576;9.746;2023-07-22T07:40:55;2.80;;;2.53;;
4766;SDS011;2397;53.576;9.746;2023-07-22T07:43:22;2.67;;;2.47;;
4766;SDS011;2397;53.576;9.746;2023-07-22T07:45:49;5.33;;;2.50;;
4766;SDS011;2397;53.576;9.746;2023-07-22T07:48:16;3.63;;;2.60;;
4766;SDS011;2397;53.576;9.746;2023-07-22T07:50:42;6.70;;;2.90;;
4766;SDS011;2397;53.576;9.746;2023-07-22T07:53:09;3.00;;;2.60;;
4766;SDS011;2397;53.576;9.746;2023-07-22T07:55:36;3.90;;;2.57;;
4766;SDS011;2397;53.576;9.746;2023-07-22T07:58:02;2.43;;;2.10;;
4766;SDS011;2397;53.576;9.746;2023-07-22T08:00:29;2.13;;;1.93;;
4766;SDS011;2397;53.576;9.746;2023-07-22T08:02:55;2.90;;;2.60;;
4766;SDS011;2397;53.576;9.746;2023-07-22T08:05:22;2.93;;;2.30;;
4766;SDS011;2397;53.576;9.746;2023-07-22T08:07:48;2.57;;;2.10;;
4766;SDS011;2397;53.576;9.746;2023-07-22T08:10:15;2.63;;;2.13;;
4766;SDS011;2397;53.576;9.746;2023-07-22T08:12:41;2.90;;;2.60;;
4766;SDS011;2397;53.576;9.746;2023-07-22T08:15:08;4.87;;;2.53;;
4766;SDS011;2397;53.576;9.746;2023-07-22T08:17:35;2.40;;;2.20;;
4766;SDS011;2397;53.576;9.746;2023-07-22T08:20:02;7.90;;;2.10;;
4766;SDS011;2397;53.576;9.746;2023-07-22T08:22:30;2.43;;;2.23;;
4766;SDS011;2397;53.576;9.746;2023-07-22T08:24:56;4.73;;;2.00;;
4766;SDS011;2397;53.576;9.746;2023-07-22T08:27:23;3.27;;;1.90;;
4766;SDS011;2397;53.576;9.746;2023-07-22T08:29:50;2.87;;;2.67;;
4766;SDS011;2397;53.576;9.746;2023-07-22T08:32:17;3.90;;;2.00;;
4766;SDS011;2397;53.576;9.746;2023-07-22T08:34:43;2.30;;;2.13;;
4766;SDS011;2397;53.576;9.746;2023-07-22T08:37:10;2.70;;;1.87;;
4766;SDS011;2397;53.576;9.746;2023-07-22T08:39:38;3.40;;;2.33;;
4766;SDS011;2397;53.576;9.746;2023-07-22T08:42:04;7.50;;;2.17;;
4766;SDS011;2397;53.576;9.746;2023-07-22T08:44:33;2.30;;;2.10;;
4766;SDS011;2397;53.576;9.746;2023-07-22T08:47:02;2.90;;;1.80;;
4766;SDS011;2397;53.576;9.746;2023-07-22T08:49:30;2.83;;;1.90;;
4766;SDS011;2397;53.576;9.746;2023-07-22T08:51:57;1.63;;;1.53;;
4766;SDS011;2397;53.576;9.746;2023-07-22T08:54:25;3.33;;;1.97;;
4766;SDS011;2397;53.576;9.746;2023-07-22T08:56:53;2.07;;;1.87;;
4766;SDS011;2397;53.576;9.746;2023-07-22T08:59:21;1.80;;;1.70;;
4766;SDS011;2397;53.576;9.746;2023-07-22T09:01:48;2.10;;;1.80;;
4766;SDS011;2397;53.576;9.746;2023-07-22T09:04:15;3.40;;;2.00;;
4766;SDS011;2397;53.576;9.746;2023-07-22T09:06:42;3.47;;;2.27;;
4766;SDS011;2397;53.576;9.746;2023-07-22T09:09:09;3.30;;;2.10;;
4766;SDS011;2397;53.576;9.746;2023-07-22T09:11:37;1.53;;;1.43;;
4766;SDS011;2397;53.576;9.746;2023-07-22T09:14:04;2.13;;;1.80;;
4766;SDS011;2397;53.576;9.746;2023-07-22T09:16:31;1.77;;;1.67;;
4766;SDS011;2397;53.576;9.746;2023-07-22T09:18:59;1.90;;;1.60;;
4766;SDS011;2397;53.576;9.746;2023-07-22T09:21:26;4.43;;;2.30;;
4766;SDS011;2397;53.576;9.746;2023-07-22T09:23:54;2.93;;;1.70;;
4766;SDS011;2397;53.576;9.746;2023-07-22T09:26:21;3.07;;;1.90;;
4766;SDS011;2397;53.576;9.746;2023-07-22T09:28:51;4.03;;;1.90;;
4766;SDS011;2397;53.576;9.746;2023-07-22T09:31:23;2.20;;;1.63;;
4766;SDS011;2397;53.576;9.746;2023-07-22T09:33:52;1.73;;;1.63;;
4766;SDS011;2397;53.576;9.746;2023-07-22T09:36:21;2.50;;;2.00;;
4766;SDS011;2397;53.576;9.746;2023-07-22T09:39:01;2.70;;;2.17;;
4766;SDS011;2397;53.576;9.746;2023-07-22T09:41:29;3.00;;;1.80;;
4766;SDS011;2397;53.576;9.746;2023-07-22T09:43:56;2.27;;;1.67;;
4766;SDS011;2397;53.576;9.746;2023-07-22T09:46:23;4.90;;;1.70;;
4766;SDS011;2397;53.576;9.746;2023-07-22T09:49:00;4.90;;;1.70;;
4766;SDS011;2397;53.576;9.746;2023-07-22T09:51:36;4.17;;;1.70;;
4766;SDS011;2397;53.576;9.746;2023-07-22T09:54:26;2.30;;;2.03;;
4766;SDS011;2397;53.576;9.746;2023-07-22T09:56:55;2.87;;;2.57;;
4766;SDS011;2397;53.576;9.746;2023-07-22T09:59:22;2.53;;;1.90;;
4766;SDS011;2397;53.576;9.746;2023-07-22T10:01:49;2.43;;;2.07;;
4766;SDS011;2397;53.576;9.746;2023-07-22T10:04:18;4.77;;;2.00;;
4766;SDS011;2397;53.576;9.746;2023-07-22T10:06:48;3.30;;;2.00;;
4766;SDS011;2397;53.576;9.746;2023-07-22T10:09:15;2.20;;;2.00;;
4766;SDS011;2397;53.576;9.746;2023-07-22T10:11:43;6.30;;;2.13;;
4766;SDS011;2397;53.576;9.746;2023-07-22T10:14:10;3.13;;;2.13;;
4766;SDS011;2397;53.576;9.746;2023-07-22T10:16:39;3.60;;;2.00;;
4766;SDS011;2397;53.576;9.746;2023-07-22T10:19:05;2.57;;;2.10;;
4766;SDS011;2397;53.576;9.746;2023-07-22T10:21:33;2.10;;;1.90;;
4766;SDS011;2397;53.576;9.746;2023-07-22T10:24:01;2.50;;;1.83;;
4766;SDS011;2397;53.576;9.746;2023-07-22T10:26:29;1.73;;;1.63;;
4766;SDS011;2397;53.576;9.746;2023-07-22T10:29:13;2.73;;;2.07;;
4766;SDS011;2397;53.576;9.746;2023-07-22T10:31:40;3.20;;;2.37;;
4766;SDS011;2397;53.576;9.746;2023-07-22T10:34:06;2.30;;;2.10;;
4766;SDS011;2397;53.576;9.746;2023-07-22T10:36:33;2.50;;;2.10;;
4766;SDS011;2397;53.576;9.746;2023-07-22T10:39:01;3.23;;;2.27;;
4766;SDS011;2397;53.576;9.746;2023-07-22T10:41:30;2.40;;;2.17;;
4766;SDS011;2397;53.576;9.746;2023-07-22T10:43:58;3.10;;;2.77;;
4766;SDS011;2397;53.576;9.746;2023-07-22T10:46:32;3.20;;;3.00;;
4766;SDS011;2397;53.576;9.746;2023-07-22T10:49:13;2.77;;;2.57;;
4766;SDS011;2397;53.576;9.746;2023-07-22T10:51:47;5.07;;;2.20;;
4766;SDS011;2397;53.576;9.746;2023-07-22T10:54:15;2.90;;;2.10;;
4766;SDS011;2397;53.576;9.746;2023-07-22T10:57:03;3.03;;;2.83;;
4766;SDS011;2397;53.576;9.746;2023-07-22T10:59:51;2.70;;;2.50;;
4766;SDS011;2397;53.576;9.746;2023-07-22T11:02:28;2.87;;;2.53;;
4766;SDS011;2397;53.576;9.746;2023-07-22T11:04:56;3.90;;;3.50;;
4766;SDS011;2397;53.576;9.746;2023-07-22T11:07:32;4.23;;;2.87;;
4766;SDS011;2397;53.576;9.746;2023-07-22T11:10:10;3.87;;;3.27;;
4766;SDS011;2397;53.576;9.746;2023-07-22T11:12:38;3.53;;;3.23;;
4766;SDS011;2397;53.576;9.746;2023-07-22T11:15:06;4.30;;;3.90;;
4766;SDS011;2397;53.576;9.746;2023-07-22T11:17:34;5.70;;;3.70;;
4766;SDS011;2397;53.576;9.746;2023-07-22T11:20:01;4.03;;;3.27;;
4766;SDS011;2397;53.576;9.746;2023-07-22T11:22:28;3.43;;;3.10;;
4766;SDS011;2397;53.576;9.746;2023-07-22T11:24:57;3.60;;;3.30;;
4766;SDS011;2397;53.576;9.746;2023-07-22T11:27:24;3.50;;;3.20;;
4766;SDS011;2397;53.576;9.746;2023-07-22T11:29:51;4.93;;;4.03;;
4766;SDS011;2397;53.576;9.746;2023-07-22T11:32:18;3.73;;;3.40;;
4766;SDS011;2397;53.576;9.746;2023-07-22T11:34:51;6.13;;;3.23;;
4766;SDS011;2397;53.576;9.746;2023-07-22T11:37:21;3.77;;;3.20;;
4766;SDS011;2397;53.576;9.746;2023-07-22T11:39:48;3.90;;;3.60;;
4766;SDS011;2397;53.576;9.746;2023-07-22T11:42:15;4.50;;;4.10;;
4766;SDS011;2397;53.576;9.746;2023-07-22T11:44:42;4.17;;;3.77;;
4766;SDS011;2397;53.576;9.746;2023-07-22T11:47:08;4.07;;;3.67;;
4766;SDS011;2397;53.576;9.746;2023-07-22T11:52:03;4.60;;;4.20;;
4766;SDS011;2397;53.576;9.746;2023-07-22T11:54:35;4.30;;;3.87;;
4766;SDS011;2397;53.576;9.746;2023-07-22T11:57:12;4.93;;;4.50;;
4766;SDS011;2397;53.576;9.746;2023-07-22T11:59:47;5.23;;;4.73;;
4766;SDS011;2397;53.576;9.746;2023-07-22T12:02:18;4.90;;;4.40;;
4766;SDS011;2397;53.576;9.746;2023-07-22T12:04:57;4.70;;;4.30;;
4766;SDS011;2397;53.576;9.746;2023-07-22T12:07:28;4.73;;;4.23;;
4766;SDS011;2397;53.576;9.746;2023-07-22T12:09:59;4.43;;;4.03;;
4766;SDS011;2397;53.576;9.746;2023-07-22T12:12:31;6.60;;;5.00;;
4766;SDS011;2397;53.576;9.746;2023-07-22T12:15:11;6.17;;;5.67;;
4766;SDS011;2397;53.576;9.746;2023-07-22T12:17:43;5.40;;;4.90;;
4766;SDS011;2397;53.576;9.746;2023-07-22T12:20:13;4.67;;;4.27;;
4766;SDS011;2397;53.576;9.746;2023-07-22T12:22:41;5.47;;;4.63;;
4766;SDS011;2397;53.576;9.746;2023-07-22T12:25:08;5.57;;;4.50;;
4766;SDS011;2397;53.576;9.746;2023-07-22T12:27:36;5.10;;;4.27;;
4766;SDS011;2397;53.576;9.746;2023-07-22T12:30:04;5.13;;;4.40;;
4766;SDS011;2397;53.576;9.746;2023-07-22T12:32:33;7.10;;;4.70;;
4766;SDS011;2397;53.576;9.746;2023-07-22T12:35:00;5.70;;;4.60;;
4766;SDS011;2397;53.576;9.746;2023-07-22T12:37:27;7.30;;;5.20;;
4766;SDS011;2397;53.576;9.746;2023-07-22T12:39:55;7.30;;;5.07;;
4766;SDS011;2397;53.576;9.746;2023-07-22T12:42:22;5.77;;;4.93;;
4766;SDS011;2397;53.576;9.746;2023-07-22T12:44:49;9.47;;;6.10;;
4766;SDS011;2397;53.576;9.746;2023-07-22T12:47:15;6.20;;;5.60;;
4766;SDS011;2397;53.576;9.746;2023-07-22T12:49:42;8.00;;;6.30;;
4766;SDS011;2397;53.576;9.746;2023-07-22T12:52:08;5.90;;;5.30;;
4766;SDS011;2397;53.576;9.746;2023-07-22T12:54:35;10.50;;;6.50;;
4766;SDS011;2397;53.576;9.746;2023-07-22T12:57:02;8.27;;;6.07;;
4766;SDS011;2397;53.576;9.746;2023-07-22T12:59:29;5.90;;;5.30;;
4766;SDS011;2397;53.576;9.746;2023-07-22T13:01:56;6.53;;;5.93;;
4766;SDS011;2397;53.576;9.746;2023-07-22T13:04:24;7.40;;;5.93;;
4766;SDS011;2397;53.576;9.746;2023-07-22T13:06:51;7.83;;;5.93;;
4766;SDS011;2397;53.576;9.746;2023-07-22T13:09:18;9.60;;;6.60;;
4766;SDS011;2397;53.576;9.746;2023-07-22T13:11:45;8.60;;;6.10;;
4766;SDS011;2397;53.576;9.746;2023-07-22T13:14:12;9.10;;;6.13;;
4766;SDS011;2397;53.576;9.746;2023-07-22T13:16:39;8.33;;;6.27;;
4766;SDS011;2397;53.576;9.746;2023-07-22T13:19:05;11.17;;;6.40;;
4766;SDS011;2397;53.576;9.746;2023-07-22T13:21:32;11.03;;;6.77;;
4766;SDS011;2397;53.576;9.746;2023-07-22T13:23:58;9.10;;;7.13;;
4766;SDS011;2397;53.576;9.746;2023-07-22T13:26:25;7.87;;;6.57;;
4766;SDS011;2397;53.576;9.746;2023-07-22T13:28:51;16.37;;;6.90;;
4766;SDS011;2397;53.576;9.746;2023-07-22T13:31:19;7.50;;;6.23;;
4766;SDS011;2397;53.576;9.746;2023-07-22T13:33:46;7.33;;;6.50;;
4766;SDS011;2397;53.576;9.746;2023-07-22T13:36:12;6.90;;;6.20;;
4766;SDS011;2397;53.576;9.746;2023-07-22T13:38:39;9.63;;;7.23;;
4766;SDS011;2397;53.576;9.746;2023-07-22T13:41:05;10.70;;;7.60;;
4766;SDS011;2397;53.576;9.746;2023-07-22T13:43:32;11.30;;;7.07;;
4766;SDS011;2397;53.576;9.746;2023-07-22T13:45:58;8.17;;;6.70;;
4766;SDS011;2397;53.576;9.746;2023-07-22T13:48:25;10.33;;;6.20;;
4766;SDS011;2397;53.576;9.746;2023-07-22T13:50:51;9.57;;;6.03;;
4766;SDS011;2397;53.576;9.746;2023-07-22T13:53:18;8.50;;;5.80;;
4766;SDS011;2397;53.576;9.746;2023-07-22T13:55:44;7.70;;;5.57;;
4766;SDS011;2397;53.576;9.746;2023-07-22T13:58:16;11.67;;;6.27;;
4766;SDS011;2397;53.576;9.746;2023-07-22T14:00:42;7.43;;;5.63;;
4766;SDS011;2397;53.576;9.746;2023-07-22T14:03:09;5.63;;;5.13;;
4766;SDS011;2397;53.576;9.746;2023-07-22T14:05:36;8.97;;;6.63;;
4766;SDS011;2397;53.576;9.746;2023-07-22T14:08:02;6.90;;;5.53;;
4766;SDS011;2397;53.576;9.746;2023-07-22T14:10:29;6.77;;;6.07;;
4766;SDS011;2397;53.576;9.746;2023-07-22T14:12:56;6.80;;;5.60;;
4766;SDS011;2397;53.576;9.746;2023-07-22T14:15:22;7.67;;;5.70;;
4766;SDS011;2397;53.576;9.746;2023-07-22T14:17:49;5.33;;;4.80;;
4766;SDS011;2397;53.576;9.746;2023-07-22T14:20:16;8.77;;;4.57;;
4766;SDS011;2397;53.576;9.746;2023-07-22T14:22:42;3.80;;;3.37;;
4766;SDS011;2397;53.576;9.746;2023-07-22T14:25:09;4.73;;;4.30;;
4766;SDS011;2397;53.576;9.746;2023-07-22T14:27:37;5.60;;;4.03;;
4766;SDS011;2397;53.576;9.746;2023-07-22T14:30:04;4.70;;;3.87;;
4766;SDS011;2397;53.576;9.746;2023-07-22T14:32:32;5.77;;;4.07;;
4766;SDS011;2397;53.576;9.746;2023-07-22T14:34:59;4.43;;;4.03;;
4766;SDS011;2397;53.576;9.746;2023-07-22T14:37:25;5.57;;;4.23;;
4766;SDS011;2397;53.576;9.746;2023-07-22T14:39:52;5.67;;;4.60;;
4766;SDS011;2397;53.576;9.746;2023-07-22T14:42:18;4.73;;;4.23;;
4766;SDS011;2397;53.576;9.746;2023-07-22T14:44:45;6.90;;;4.57;;
4766;SDS011;2397;53.576;9.746;2023-07-22T14:47:11;4.73;;;4.20;;
4766;SDS011;2397;53.576;9.746;2023-07-22T14:49:38;5.87;;;4.50;;
4766;SDS011;2397;53.576;9.746;2023-07-22T14:52:05;6.23;;;5.37;;
4766;SDS011;2397;53.576;9.746;2023-07-22T14:54:32;5.93;;;5.30;;
4766;SDS011;2397;53.576;9.746;2023-07-22T14:57:00;6.93;;;5.90;;
4766;SDS011;2397;53.576;9.746;2023-07-22T14:59:26;6.47;;;5.77;;
4766;SDS011;2397;53.576;9.746;2023-07-22T15:01:53;6.50;;;5.73;;
4766;SDS011;2397;53.576;9.746;2023-07-22T15:04:20;5.43;;;4.90;;
4766;SDS011;2397;53.576;9.746;2023-07-22T15:06:47;6.80;;;6.20;;
4766;SDS011;2397;53.576;9.746;2023-07-22T15:09:13;8.73;;;6.23;;
4766;SDS011;2397;53.576;9.746;2023-07-22T15:11:40;6.00;;;5.40;;
4766;SDS011;2397;53.576;9.746;2023-07-22T15:14:06;8.60;;;6.33;;
4766;SDS011;2397;53.576;9.746;2023-07-22T15:16:33;6.50;;;5.90;;